»·PEaware :: AAL343 KPDX-KSFO

AAL343 :: KPDX-KSFO

FLIGHT INFORMATION

Flight Status: Arrived
Operator:
American Airlines
More flights by this operator :: More flights under this callsign
Pilot: James W. (12414)
Aircraft: BOEING 737-800
(B738)
More flights by this aircraft type
Origin: KPDX Portland Intl
United States
Destination: KSFO San Francisco Intl
United States
More flights between these airports :: More routes between these airports
Route: MINNE5 FAMUK Q3 FOWND MLBEC BDEGA2
File this flight plan on PilotEdge
Remarks:
Altitude:
(Current/Filed)
370ft
Speed:
(Current/Filed)
500kts
Departed: 10-Jun-18 05:39 PM
Arrived: 10-Jun-18 07:03 PM
Distance/Time
Traveled:
478nm/1:24
Distance/Time
To Go:
Arrived

Flight Plot

Page will automatically refresh every two minutes.


Map Options




Map Legend


Flown Route
Filed Route
Departure Airport
Arrival Airport
Navaid (VOR, NDB)
Fix

Horizontal Profiles

Position Reports

Time Latitude Longitude Heading Altitude Ground
Speed
10-Jun-18 17:11 45.589865 -122.600071 85 37ft 0kts
10-Jun-18 17:12 45.589865 -122.600071 85 37ft 0kts
10-Jun-18 17:13 45.589865 -122.600071 85 37ft 0kts
10-Jun-18 17:14 45.589865 -122.600071 85 37ft 0kts
10-Jun-18 17:15 45.589865 -122.600071 85 37ft 0kts
10-Jun-18 17:16 45.589865 -122.600071 85 37ft 0kts
10-Jun-18 17:17 45.589865 -122.600071 85 37ft 0kts
10-Jun-18 17:18 45.589865 -122.600071 85 37ft 0kts
10-Jun-18 17:19 45.589865 -122.600071 85 37ft 0kts
10-Jun-18 17:20 45.589865 -122.600071 85 37ft 0kts
10-Jun-18 17:21 45.589865 -122.600071 85 37ft 0kts
10-Jun-18 17:22 45.589865 -122.600071 85 37ft 0kts
10-Jun-18 17:23 45.589865 -122.600071 85 37ft 0kts
10-Jun-18 17:24 45.589865 -122.600071 85 37ft 0kts
10-Jun-18 17:25 45.589844 -122.600422 84 37ft 0kts
10-Jun-18 17:26 45.589844 -122.600421 83 37ft 0kts
10-Jun-18 17:27 45.589844 -122.600421 83 37ft 0kts
10-Jun-18 17:28 45.589844 -122.600421 83 37ft 0kts
10-Jun-18 17:29 45.589844 -122.600421 83 37ft 0kts
10-Jun-18 17:30 45.589844 -122.600421 83 37ft 0kts
10-Jun-18 17:31 45.589844 -122.600421 83 37ft 0kts
10-Jun-18 17:32 45.589805 -122.601077 83 37ft 0kts
10-Jun-18 17:33 45.589368 -122.601259 306 37ft 2kts
10-Jun-18 17:34 45.589342 -122.601199 299 37ft 0kts
10-Jun-18 17:35 45.589413 -122.601872 242 37ft 7kts
10-Jun-18 17:36 45.591832 -122.608096 297 37ft 26kts
10-Jun-18 17:37 45.595907 -122.618635 297 37ft 23kts
10-Jun-18 17:38 45.595226 -122.621007 175 37ft 12kts
10-Jun-18 17:39 45.582494 -122.588283 118 288ft 197kts
10-Jun-18 17:40 45.566279 -122.501284 90 2212ft 256kts
10-Jun-18 17:41 45.556967 -122.400269 106 4318ft 263kts
10-Jun-18 17:42 45.517502 -122.320840 167 6409ft 264kts
10-Jun-18 17:43 45.444693 -122.316967 204 8521ft 267kts
10-Jun-18 17:44 45.402813 -122.400059 246 10658ft 270kts
10-Jun-18 17:45 45.372329 -122.497544 247 12735ft 275kts
10-Jun-18 17:46 45.341186 -122.596112 247 14810ft 277kts
10-Jun-18 17:47 45.308434 -122.698884 247 16939ft 306kts
10-Jun-18 17:48 45.272158 -122.811822 248 19082ft 331kts
10-Jun-18 17:49 45.231842 -122.931866 239 21199ft 352kts
10-Jun-18 17:50 45.152293 -123.017337 222 23303ft 375kts
10-Jun-18 17:51 45.066598 -123.097732 223 25365ft 378kts
10-Jun-18 17:52 44.970775 -123.156726 191 27442ft 422kts
10-Jun-18 17:53 44.860255 -123.150689 191 29377ft 415kts
10-Jun-18 17:54 44.742213 -123.145991 190 29636ft 451kts
10-Jun-18 17:55 44.614202 -123.141068 190 30489ft 469kts
10-Jun-18 17:56 44.484438 -123.136154 191 31823ft 472kts
10-Jun-18 17:57 44.377097 -123.132181 191 32871ft 473kts
10-Jun-18 17:58 44.247903 -123.127470 192 34035ft 475kts
10-Jun-18 17:59 44.118765 -123.122780 192 35261ft 471kts
10-Jun-18 18:00 43.990294 -123.118149 192 36317ft 469kts
10-Jun-18 18:01 43.865675 -123.113691 192 37147ft 469kts
10-Jun-18 18:02 43.736496 -123.109060 192 37149ft 465kts
10-Jun-18 18:03 43.608523 -123.104552 192 37148ft 467kts
10-Jun-18 18:04 43.479391 -123.100093 192 37143ft 474kts
10-Jun-18 18:05 43.345500 -123.095678 191 37144ft 494kts
10-Jun-18 18:06 43.208354 -123.091005 191 37140ft 503kts
10-Jun-18 18:07 43.070035 -123.086136 191 37137ft 502kts
10-Jun-18 18:08 42.934614 -123.081422 190 37129ft 498kts
10-Jun-18 18:09 42.802637 -123.076823 189 37120ft 495kts
10-Jun-18 18:10 42.666576 -123.072077 189 37116ft 495kts
10-Jun-18 18:11 42.530094 -123.067327 189 37117ft 495kts
10-Jun-18 18:12 42.394204 -123.062766 189 37118ft 495kts
10-Jun-18 18:13 42.257881 -123.058353 189 37118ft 495kts
10-Jun-18 18:14 42.121574 -123.053957 189 37120ft 495kts
10-Jun-18 18:15 41.985008 -123.049565 189 37118ft 495kts
10-Jun-18 18:16 41.851531 -123.045288 189 37106ft 495kts
10-Jun-18 18:17 41.715048 -123.040922 189 37099ft 494kts
10-Jun-18 18:18 41.579378 -123.036598 189 37099ft 495kts
10-Jun-18 18:19 41.445882 -123.032349 189 37101ft 495kts
10-Jun-18 18:20 41.309265 -123.028023 189 37101ft 494kts
10-Jun-18 18:21 41.172436 -123.023900 189 37102ft 495kts
10-Jun-18 18:22 41.035636 -123.019841 188 37072ft 493kts
10-Jun-18 18:23 40.901325 -123.015897 187 37030ft 492kts
10-Jun-18 18:24 40.770613 -123.012013 187 37026ft 492kts
10-Jun-18 18:25 40.634413 -123.007982 187 37026ft 492kts
10-Jun-18 18:26 40.498171 -123.003963 187 37027ft 492kts
10-Jun-18 18:27 40.361960 -122.999979 187 37027ft 492kts
10-Jun-18 18:28 40.225214 -122.995942 187 37037ft 492kts
10-Jun-18 18:29 40.088930 -122.991951 187 37058ft 492kts
10-Jun-18 18:30 39.952551 -122.987958 187 37081ft 492kts
10-Jun-18 18:31 39.817822 -122.984025 187 37076ft 493kts
10-Jun-18 18:32 39.685028 -122.979852 188 35933ft 456kts
10-Jun-18 18:33 39.561714 -122.976161 188 34814ft 444kts
10-Jun-18 18:34 39.433648 -122.972777 187 33802ft 475kts
10-Jun-18 18:35 39.301833 -122.968956 187 32718ft 476kts
10-Jun-18 18:36 39.169658 -122.965131 187 31646ft 478kts
10-Jun-18 18:37 39.037115 -122.961739 186 30182ft 481kts
10-Jun-18 18:38 38.904397 -122.959279 184 28327ft 483kts
10-Jun-18 18:39 38.782909 -122.934282 170 26616ft 496kts
10-Jun-18 18:40 38.648892 -122.893695 169 24742ft 500kts
10-Jun-18 18:41 38.517487 -122.854481 170 24016ft 461kts
10-Jun-18 18:42 38.400549 -122.819786 170 22304ft 418kts
10-Jun-18 18:43 38.290909 -122.787513 169 20590ft 398kts
10-Jun-18 18:44 38.185428 -122.756644 169 18881ft 387kts
10-Jun-18 18:45 38.083212 -122.726889 169 16797ft 373kts
10-Jun-18 18:46 37.987209 -122.698967 169 15961ft 325kts
10-Jun-18 18:47 37.903429 -122.674177 163 15927ft 309kts
10-Jun-18 18:48 37.834235 -122.607984 139 14038ft 327kts
10-Jun-18 18:49 37.765466 -122.533650 139 12083ft 329kts
10-Jun-18 18:50 37.697369 -122.460791 139 11001ft 300kts
10-Jun-18 18:51 37.639182 -122.398594 140 11022ft 256kts
10-Jun-18 18:52 37.583754 -122.349411 146 10598ft 262kts
10-Jun-18 18:53 37.527814 -122.302591 147 8305ft 238kts
10-Jun-18 18:54 37.488333 -122.247054 112 7309ft 230kts
10-Jun-18 18:55 37.463074 -122.174052 104 5407ft 240kts
10-Jun-18 18:56 37.496877 -122.132275 329 3180ft 191kts
10-Jun-18 18:57 37.532779 -122.171763 297 3024ft 178kts
10-Jun-18 18:58 37.554889 -122.223345 296 2351ft 140kts
10-Jun-18 18:59 37.571788 -122.263496 296 1703ft 134kts
10-Jun-18 19:00 37.588400 -122.303861 294 1092ft 127kts
10-Jun-18 19:01 37.605310 -122.343079 293 385ft 128kts
10-Jun-18 19:02 37.618442 -122.374477 293 21ft 44kts
10-Jun-18 19:03 37.618913 -122.380296 270 21ft 9kts

Navigation Log

Ident Type
1. KPDX Airport
2. RIVRR Fix
3. COSUG Fix
4. BISLE Fix
5. MINNE Fix
6. FAMUK Fix
7. FAMUK Navaid
8. FRFLY Navaid
9. FINER Navaid
10. FOWND Navaid
11. MLBEC Fix
12. JONNE Fix
13. BGGLO Fix
14. LOZIT Fix
15. BDEGA Fix
16. CORKK Fix
17. BRIXX Fix
18. KSFO Airport